Time;durP1;ratioP1;P1;durP2;ratioP2;P2;SDS_P1;SDS_P2;PMS_P1;PMS_P2;Temp;Humidity;BMP_temperature;BMP_pressure;BME280_temperature;BME280_humidity;BME280_pressure;Samples;Min_cycle;Max_cycle;Signal;HPM_P1;HPM_P2
2022/02/08 00:02:29;;;;;;;3.17;1.00;;;6.40;98.30;;;;;;5025677;28;20518;-79
2022/02/08 00:04:58;;;;;;;3.30;0.90;;;6.50;99.90;;;;;;5027093;28;20324;-80
2022/02/08 00:07:29;;;;;;;2.37;0.73;;;6.40;96.00;;;;;;5024255;28;20491;-80
2022/02/08 00:09:57;;;;;;;2.70;0.77;;;6.50;95.60;;;;;;5024777;28;21012;-79
2022/02/08 00:12:25;;;;;;;1.57;0.80;;;6.50;97.10;;;;;;5017281;28;20445;-80
2022/02/08 00:14:54;;;;;;;5.13;0.85;;;6.50;97.50;;;;;;5023905;28;20520;-79
2022/02/08 00:17:23;;;;;;;2.33;0.97;;;6.50;97.20;;;;;;5054149;28;20225;-79
2022/02/08 00:19:51;;;;;;;6.40;1.30;;;6.60;97.00;;;;;;5025352;28;20530;-79
2022/02/08 00:22:22;;;;;;;3.10;1.10;;;6.50;95.90;;;;;;5025546;28;20448;-79
2022/02/08 00:24:50;;;;;;;3.23;0.90;;;6.50;96.30;;;;;;5025173;28;21035;-78
2022/02/08 00:27:18;;;;;;;3.20;1.40;;;6.60;97.40;;;;;;5022754;28;20495;-79
2022/02/08 00:29:47;;;;;;;0.93;0.80;;;6.50;98.60;;;;;;5024498;28;20480;-79
2022/02/08 00:32:15;;;;;;;3.50;1.10;;;6.60;99.50;;;;;;5028586;28;20458;-79
2022/02/08 00:34:44;;;;;;;2.77;1.20;;;6.60;98.10;;;;;;5022462;28;20456;-80
2022/02/08 00:37:12;;;;;;;0.80;0.77;;;6.70;97.10;;;;;;5022176;28;20453;-80
2022/02/08 00:39:42;;;;;;;3.27;0.93;;;6.60;97.60;;;;;;5026073;28;20472;-79
2022/02/08 00:42:11;;;;;;;2.50;0.93;;;6.70;98.60;;;;;;5025799;28;20459;-80
2022/02/08 00:44:45;;;;;;;1.10;0.83;;;6.70;99.00;;;;;;5022368;28;20865;-79
2022/02/08 00:47:22;;;;;;;2.63;1.23;;;6.70;96.50;;;;;;5024036;28;20495;-79
2022/02/08 00:49:50;;;;;;;3.00;1.00;;;6.70;96.00;;;;;;5026495;28;20484;-79
2022/02/08 00:52:19;;;;;;;0.87;0.87;;;6.70;95.90;;;;;;5025270;28;20487;-80
2022/02/08 00:54:51;;;;;;;2.83;0.83;;;6.70;96.40;;;;;;5023460;28;20539;-80
2022/02/08 00:57:19;;;;;;;1.45;0.85;;;6.70;96.30;;;;;;5054970;28;20544;-80
2022/02/08 00:59:47;;;;;;;1.80;1.00;;;6.70;96.30;;;;;;5020084;28;20226;-80
2022/02/08 01:02:16;;;;;;;2.67;1.00;;;6.70;98.10;;;;;;5026402;28;20464;-79
2022/02/08 01:04:49;;;;;;;3.17;1.30;;;6.70;97.60;;;;;;5018924;28;20446;-80
2022/02/08 01:07:17;;;;;;;2.50;0.90;;;6.70;98.70;;;;;;5025149;28;20986;-80
2022/02/08 01:09:51;;;;;;;2.50;1.00;;;6.60;98.00;;;;;;5023948;28;20563;-79
2022/02/08 01:12:21;;;;;;;3.90;1.00;;;6.60;97.10;;;;;;5030212;28;20462;-79
2022/02/08 01:14:52;;;;;;;6.07;1.03;;;6.50;96.90;;;;;;5054454;28;20467;-79
2022/02/08 01:17:22;;;;;;;1.63;0.83;;;6.60;97.80;;;;;;5035976;28;20568;-80
2022/02/08 01:19:56;;;;;;;1.47;0.90;;;6.60;97.70;;;;;;5032320;28;20488;-79
2022/02/08 01:22:24;;;;;;;2.83;0.90;;;6.60;98.60;;;;;;5029482;28;20543;-79
2022/02/08 01:24:53;;;;;;;1.20;1.10;;;6.60;99.50;;;;;;5029318;28;20507;-79
2022/02/08 01:27:27;;;;;;;3.00;1.33;;;6.60;98.50;;;;;;5025069;28;20485;-79
2022/02/08 01:29:59;;;;;;;2.77;1.80;;;6.50;97.10;;;;;;5026419;28;20491;-79
2022/02/08 01:32:59;;;;;;;1.77;0.90;;;6.50;97.60;;;;;;5031943;28;20456;-80
2022/02/08 01:35:44;;;;;;;5.23;1.53;;;6.50;96.40;;;;;;5034892;28;20440;-80
2022/02/08 01:38:17;;;;;;;5.07;1.30;;;6.50;97.00;;;;;;5058298;28;20468;-79
2022/02/08 01:41:06;;;;;;;1.50;0.90;;;6.50;97.10;;;;;;5027406;28;20453;-79
2022/02/08 01:46:31;;;;;;;3.13;0.85;;;6.50;97.20;;;;;;5034739;28;20476;-79
2022/02/08 01:49:11;;;;;;;1.80;0.80;;;6.50;95.70;;;;;;5036349;28;20252;-80
2022/02/08 01:51:39;;;;;;;1.05;0.82;;;6.50;97.30;;;;;;5037015;28;20586;-79
2022/02/08 01:54:08;;;;;;;1.10;0.70;;;6.50;97.80;;;;;;5037463;28;20285;-79
2022/02/08 01:56:36;;;;;;;0.80;0.80;;;6.60;97.50;;;;;;5041665;28;20519;-79
2022/02/08 01:59:06;;;;;;;1.77;1.10;;;6.60;98.70;;;;;;5059943;28;20492;-79
2022/02/08 02:01:35;;;;;;;1.47;1.00;;;6.60;97.90;;;;;;5035696;28;20633;-79
2022/02/08 02:04:03;;;;;;;1.83;0.80;;;6.60;98.20;;;;;;5039575;28;20464;-80
2022/02/08 02:06:40;;;;;;;1.33;1.00;;;6.60;97.30;;;;;;5067899;28;20872;-79
2022/02/08 02:09:09;;;;;;;1.70;0.80;;;6.70;96.00;;;;;;5039899;28;20477;-79
2022/02/08 02:11:37;;;;;;;2.30;0.70;;;6.60;95.90;;;;;;5038561;28;20458;-80
2022/02/08 02:14:07;;;;;;;2.10;0.80;;;6.60;95.90;;;;;;5026671;28;20535;-79
2022/02/08 02:16:48;;;;;;;0.87;0.70;;;6.50;95.60;;;;;;5042228;28;20452;-79
2022/02/08 02:19:16;;;;;;;4.00;1.00;;;6.50;96.10;;;;;;5039057;28;20481;-79
2022/02/08 02:21:44;;;;;;;1.83;0.90;;;6.40;95.90;;;;;;5039237;28;20547;-79
2022/02/08 02:24:14;;;;;;;1.20;0.83;;;6.50;99.90;;;;;;5043090;28;21080;-80
2022/02/08 02:26:42;;;;;;;2.80;0.90;;;6.50;96.20;;;;;;5070571;28;20478;-78
2022/02/08 02:29:14;;;;;;;1.38;0.75;;;6.50;95.70;;;;;;5036190;28;20476;-79
2022/02/08 02:31:43;;;;;;;1.60;1.00;;;6.60;95.30;;;;;;5039083;28;20205;-79
2022/02/08 02:34:11;;;;;;;4.00;1.00;;;6.60;95.50;;;;;;5034130;28;20456;-79
2022/02/08 02:36:41;;;;;;;6.87;0.93;;;6.50;95.90;;;;;;5043651;28;20468;-79
2022/02/08 02:39:09;;;;;;;5.53;0.80;;;6.50;96.50;;;;;;5036479;28;20468;-78
2022/02/08 02:41:40;;;;;;;1.58;0.90;;;6.60;95.80;;;;;;5039569;28;20467;-79
2022/02/08 02:44:10;;;;;;;3.58;1.23;;;6.50;95.50;;;;;;5026645;28;20224;-79
2022/02/08 02:46:39;;;;;;;3.85;1.10;;;6.50;95.10;;;;;;5037044;28;20224;-78
2022/02/08 02:49:08;;;;;;;1.27;0.90;;;6.50;95.70;;;;;;5036013;28;20221;-79
2022/02/08 02:51:36;;;;;;;4.30;0.90;;;6.50;95.60;;;;;;5031576;28;20453;-79
2022/02/08 02:54:13;;;;;;;1.83;1.10;;;6.40;95.40;;;;;;5039438;28;20456;-79
2022/02/08 02:56:44;;;;;;;1.20;0.80;;;6.40;95.00;;;;;;5033311;28;20588;-79
2022/02/08 02:59:12;;;;;;;2.80;0.80;;;6.20;94.10;;;;;;5041110;28;20483;-79
2022/02/08 03:02:01;;;;;;;0.87;0.70;;;6.20;95.20;;;;;;5035747;28;20193;-79
2022/02/08 03:04:39;;;;;;;2.90;0.70;;;6.10;94.10;;;;;;5041292;28;20974;-79
2022/02/08 03:21:03;;;;;;;3.33;0.90;;;6.40;95.20;;;;;;5032508;28;20465;-79
2022/02/08 03:23:32;;;;;;;1.10;0.90;;;6.30;95.10;;;;;;5029726;28;20455;-79
2022/02/08 03:26:00;;;;;;;2.33;0.70;;;6.30;95.60;;;;;;5029769;28;20194;-79
2022/02/08 03:28:30;;;;;;;2.10;0.70;;;6.30;95.60;;;;;;5042731;28;20463;-79
2022/02/08 03:30:59;;;;;;;5.60;1.13;;;6.20;95.10;;;;;;5064807;28;20452;-78
2022/02/08 03:33:28;;;;;;;4.93;0.90;;;6.30;95.70;;;;;;5038099;28;20464;-79
2022/02/08 03:35:57;;;;;;;3.50;0.90;;;6.20;95.80;;;;;;5033533;28;20463;-79
2022/02/08 03:38:31;;;;;;;1.45;0.80;;;6.10;94.90;;;;;;5029965;28;20444;-79
2022/02/08 03:41:02;;;;;;;2.90;1.20;;;6.20;94.90;;;;;;5034330;28;20575;-79
2022/02/08 03:43:32;;;;;;;2.90;0.80;;;6.10;95.20;;;;;;5031894;28;20557;-78
2022/02/08 03:46:06;;;;;;;1.97;1.20;;;6.20;95.20;;;;;;5033948;28;20467;-79
2022/02/08 03:48:37;;;;;;;1.77;0.90;;;6.10;95.20;;;;;;5029949;28;20472;-79
2022/02/08 03:51:10;;;;;;;3.07;0.90;;;5.80;93.30;;;;;;5040100;28;20905;-78
2022/02/08 03:53:42;;;;;;;1.30;0.80;;;5.80;94.70;;;;;;5034817;28;20505;-79
2022/02/08 03:56:12;;;;;;;1.88;1.02;;;5.70;94.80;;;;;;5038963;28;20662;-79
2022/02/08 03:58:42;;;;;;;0.82;0.80;;;5.70;95.00;;;;;;5029472;28;20225;-79
2022/02/08 04:04:14;;;;;;;0.77;0.70;;;5.60;95.10;;;;;;5011457;28;20997;-78
2022/02/08 04:06:45;;;;;;;1.67;0.70;;;5.80;95.00;;;;;;5030469;28;20769;-78
2022/02/08 04:09:14;;;;;;;2.23;0.80;;;5.90;95.30;;;;;;5039432;28;20541;-78
2022/02/08 04:11:53;;;;;;;2.55;0.75;;;5.80;95.60;;;;;;5039276;28;20558;-79
2022/02/08 04:14:30;;;;;;;3.47;1.17;;;5.80;95.40;;;;;;5037267;28;20198;-78
2022/02/08 04:17:07;;;;;;;4.70;0.77;;;5.90;95.40;;;;;;5033138;28;20283;-78
2022/02/08 04:19:46;;;;;;;0.80;0.77;;;5.80;95.10;;;;;;5031415;28;20631;-78
2022/02/08 04:33:58;;;;;;;2.15;0.90;;;5.80;99.90;;;;;;4951339;28;20289;-79
2022/02/08 04:36:58;;;;;;;1.00;0.70;;;5.80;95.20;;;;;;5022603;28;20209;-79
2022/02/08 04:39:44;;;;;;;0.95;0.95;;;5.90;94.90;;;;;;5032874;28;20513;-79
2022/02/08 04:42:20;;;;;;;1.23;0.80;;;5.90;95.20;;;;;;5036050;28;20206;-78
2022/02/08 04:45:00;;;;;;;0.80;0.60;;;5.80;95.10;;;;;;5029487;28;20598;-78
2022/02/08 04:47:34;;;;;;;1.67;0.80;;;5.80;95.20;;;;;;5056985;28;20441;-79
2022/02/08 04:50:03;;;;;;;0.77;0.77;;;5.80;95.60;;;;;;5029583;28;20245;-79
2022/02/08 04:52:32;;;;;;;0.77;0.60;;;5.80;95.00;;;;;;5039370;28;20498;-79
2022/02/08 04:55:18;;;;;;;0.85;0.75;;;5.90;95.40;;;;;;5039711;28;20492;-79
2022/02/08 04:57:52;;;;;;;1.15;0.70;;;5.80;95.10;;;;;;5062666;28;20200;-79
2022/02/08 05:00:27;;;;;;;2.95;0.93;;;5.80;95.40;;;;;;5035769;28;20272;-79
2022/02/08 05:36:42;;;;;;;0.97;0.70;;;6.10;97.10;;;;;;5034953;28;20193;-79
2022/02/08 05:42:05;;;;;;;1.95;0.63;;;6.00;99.50;;;;;;5038270;28;20655;-78
2022/02/08 05:44:40;;;;;;;1.90;0.90;;;6.10;99.90;;;;;;5048663;28;20197;-78
2022/02/08 05:47:09;;;;;;;1.63;0.90;;;6.00;99.20;;;;;;5040778;28;20215;-78
2022/02/08 05:49:43;;;;;;;1.77;1.05;;;6.00;99.50;;;;;;5040708;28;21087;-78
2022/02/08 05:54:58;;;;;;;3.47;1.00;;;5.90;99.90;;;;;;5031523;28;20293;-77
2022/02/08 05:57:26;;;;;;;2.47;0.80;;;5.90;99.90;;;;;;5034976;28;20510;-78
2022/02/08 05:59:55;;;;;;;1.20;0.93;;;5.90;99.90;;;;;;5038192;28;20883;-77
2022/02/08 06:02:23;;;;;;;4.00;1.10;;;6.00;99.90;;;;;;5027735;28;20543;-78
2022/02/08 06:04:52;;;;;;;3.23;0.90;;;5.90;99.90;;;;;;5028903;28;20556;-77
2022/02/08 06:07:23;;;;;;;0.90;0.83;;;5.80;99.90;;;;;;5038841;28;20467;-77
2022/02/08 06:09:54;;;;;;;3.23;1.03;;;5.80;99.90;;;;;;5042456;28;20479;-77
2022/02/08 06:12:25;;;;;;;2.38;1.00;;;5.80;99.90;;;;;;5040754;28;20577;-78
2022/02/08 06:14:59;;;;;;;0.88;0.70;;;5.80;99.90;;;;;;5037190;28;20201;-77
2022/02/08 06:17:27;;;;;;;2.70;0.90;;;5.90;99.90;;;;;;5036535;28;20233;-77
2022/02/08 06:19:56;;;;;;;1.80;0.80;;;5.90;99.90;;;;;;5032224;28;20939;-76
2022/02/08 06:22:26;;;;;;;1.85;1.00;;;5.80;99.90;;;;;;5062558;28;21056;-78
2022/02/08 06:24:54;;;;;;;3.92;0.80;;;5.80;99.90;;;;;;5034847;28;20225;-77
2022/02/08 06:27:29;;;;;;;7.40;1.47;;;5.80;99.90;;;;;;5039656;28;20198;-78
2022/02/08 06:29:58;;;;;;;2.13;0.83;;;5.80;99.90;;;;;;5025840;28;20841;-78
2022/02/08 06:32:27;;;;;;;3.53;0.90;;;6.00;99.90;;;;;;5029859;28;20501;-78
2022/02/08 06:34:57;;;;;;;1.45;0.70;;;6.00;99.90;;;;;;5035762;28;21014;-77
2022/02/08 06:37:31;;;;;;;0.60;0.60;;;5.90;99.90;;;;;;5035108;28;20283;-76
2022/02/08 06:40:00;;;;;;;2.17;1.05;;;5.80;99.90;;;;;;5031045;28;20478;-76
2022/02/08 06:42:28;;;;;;;0.80;0.80;;;5.70;99.90;;;;;;5026307;28;20230;-77
2022/02/08 06:44:57;;;;;;;1.35;0.77;;;5.70;99.90;;;;;;5027705;28;20304;-77
2022/02/08 06:47:26;;;;;;;8.48;1.05;;;5.70;99.90;;;;;;5040365;28;20236;-77
2022/02/08 06:49:54;;;;;;;3.25;0.90;;;5.70;99.90;;;;;;5034847;28;20214;-78
2022/02/08 06:52:23;;;;;;;1.70;0.90;;;5.80;99.90;;;;;;5030964;28;20349;-77
2022/02/08 06:54:52;;;;;;;4.07;1.20;;;5.80;99.90;;;;;;5023725;28;20197;-78
2022/02/08 06:57:21;;;;;;;1.27;0.67;;;5.90;99.90;;;;;;5018520;28;20567;-77
2022/02/08 06:59:53;;;;;;;4.10;0.98;;;6.00;99.90;;;;;;5025377;28;20463;-77
2022/02/08 07:02:21;;;;;;;3.95;1.00;;;6.10;99.90;;;;;;5034445;28;20214;-78
2022/02/08 07:04:50;;;;;;;3.63;0.80;;;6.10;99.90;;;;;;5033182;28;20207;-77
2022/02/08 07:07:18;;;;;;;2.50;1.00;;;6.10;99.90;;;;;;5026442;28;20493;-78
2022/02/08 07:09:46;;;;;;;1.63;0.80;;;6.20;99.90;;;;;;5027998;28;20263;-78
2022/02/08 07:12:16;;;;;;;2.10;0.83;;;6.10;99.90;;;;;;5027762;28;20460;-77
2022/02/08 07:14:45;;;;;;;5.07;0.90;;;6.20;99.90;;;;;;5026295;28;20449;-78
2022/02/08 07:17:14;;;;;;;3.80;0.70;;;6.20;99.90;;;;;;5026107;28;20445;-78
2022/02/08 07:19:42;;;;;;;1.48;0.80;;;6.10;99.90;;;;;;5031944;28;20506;-78
2022/02/08 07:22:10;;;;;;;0.83;0.80;;;6.00;99.90;;;;;;5027520;28;20313;-77
2022/02/08 07:24:39;;;;;;;5.13;0.70;;;6.10;99.90;;;;;;5027162;28;20449;-78
2022/02/08 07:27:08;;;;;;;1.27;0.70;;;6.10;99.90;;;;;;5027713;28;20801;-78
2022/02/08 07:29:39;;;;;;;0.80;0.77;;;6.10;99.90;;;;;;5026780;28;20518;-77
2022/02/08 07:32:09;;;;;;;2.30;0.70;;;6.10;99.90;;;;;;5028764;28;20208;-77
2022/02/08 07:34:43;;;;;;;2.40;0.80;;;6.20;99.90;;;;;;5028402;28;20645;-78
2022/02/08 07:37:17;;;;;;;1.40;0.80;;;6.30;99.90;;;;;;5056527;28;21154;-78
2022/02/08 07:39:48;;;;;;;2.10;1.00;;;6.30;99.90;;;;;;5033112;28;20889;-78
2022/02/08 07:42:17;;;;;;;1.60;0.77;;;6.40;99.90;;;;;;5027772;28;20479;-78
2022/02/08 07:44:47;;;;;;;1.63;0.70;;;6.60;99.90;;;;;;5043840;28;20459;-77
2022/02/08 07:47:15;;;;;;;0.93;0.70;;;6.50;99.90;;;;;;5021585;28;20463;-78
2022/02/08 07:49:44;;;;;;;1.40;0.80;;;6.40;99.90;;;;;;5031314;28;20480;-78
2022/02/08 07:52:12;;;;;;;4.23;0.90;;;6.40;99.90;;;;;;5024473;28;20548;-78
2022/02/08 07:54:40;;;;;;;0.87;0.87;;;6.40;99.90;;;;;;5030729;28;20568;-78
2022/02/08 07:57:09;;;;;;;7.77;0.90;;;6.40;99.90;;;;;;5035055;28;20449;-78
2022/02/08 07:59:37;;;;;;;2.38;0.68;;;6.40;99.90;;;;;;5037556;28;20476;-78
2022/02/08 08:02:08;;;;;;;5.90;1.13;;;6.40;99.90;;;;;;5028667;28;20201;-78
2022/02/08 08:04:36;;;;;;;2.67;0.90;;;6.30;99.90;;;;;;5030874;28;20473;-78
2022/02/08 08:07:05;;;;;;;5.60;2.37;;;6.40;99.90;;;;;;5024013;28;20959;-78
2022/02/08 08:09:39;;;;;;;2.40;1.20;;;6.50;99.90;;;;;;5029532;28;20898;-78
2022/02/08 08:12:10;;;;;;;1.00;0.83;;;6.40;99.90;;;;;;5058527;28;20455;-77
2022/02/08 08:14:39;;;;;;;3.20;1.10;;;6.30;99.90;;;;;;5026937;28;20831;-78
2022/02/08 08:17:37;;;;;;;4.20;0.82;;;6.30;99.90;;;;;;5031610;28;20972;-78
2022/02/08 08:20:04;;;;;;;4.10;1.17;;;6.30;99.90;;;;;;5056100;28;20632;-77
2022/02/08 08:22:32;;;;;;;4.27;0.80;;;6.40;99.90;;;;;;5042831;28;20544;-78
2022/02/08 08:25:02;;;;;;;2.40;0.80;;;6.40;99.90;;;;;;5026337;28;20518;-78
2022/02/08 08:27:32;;;;;;;1.83;0.83;;;6.50;99.90;;;;;;5037321;28;20956;-78
2022/02/08 08:30:00;;;;;;;3.40;1.10;;;6.50;99.90;;;;;;5023981;28;20480;-78
2022/02/08 08:32:30;;;;;;;2.10;0.97;;;6.50;99.90;;;;;;5027508;28;20690;-78
2022/02/08 08:34:58;;;;;;;1.37;0.90;;;6.60;99.90;;;;;;5029470;28;20445;-78
2022/02/08 08:37:35;;;;;;;3.73;1.00;;;6.60;99.90;;;;;;5031132;28;20582;-79
2022/02/08 08:40:14;;;;;;;2.67;0.90;;;6.70;99.90;;;;;;5026194;28;20582;-79
2022/02/08 08:42:50;;;;;;;0.90;0.90;;;6.80;99.90;;;;;;5029809;28;20468;-78
2022/02/08 08:48:43;;;;;;;1.00;0.80;;;6.90;99.90;;;;;;5029791;28;20451;-79
2022/02/08 08:51:33;;;;;;;3.23;0.77;;;7.10;99.90;;;;;;5028468;28;20462;-79
2022/02/08 08:54:05;;;;;;;1.87;0.80;;;7.20;99.90;;;;;;5022747;28;20515;-78
2022/02/08 08:56:33;;;;;;;1.27;0.70;;;7.30;99.90;;;;;;5030266;28;20443;-79
2022/02/08 08:59:01;;;;;;;4.80;1.20;;;7.50;99.90;;;;;;5026616;28;20927;-79
2022/02/08 09:01:31;;;;;;;1.53;0.83;;;7.70;99.90;;;;;;5023314;28;20855;-79
2022/02/08 09:04:02;;;;;;;1.00;0.60;;;7.70;99.90;;;;;;5026676;28;20467;-79
2022/02/08 09:06:33;;;;;;;0.70;0.70;;;7.90;99.90;;;;;;5030777;28;20966;-79
2022/02/08 09:09:05;;;;;;;4.80;0.77;;;8.10;99.90;;;;;;5028100;28;20485;-79
2022/02/08 09:11:50;;;;;;;3.77;0.93;;;8.20;99.90;;;;;;5022346;28;20459;-76
2022/02/08 09:14:23;;;;;;;3.03;0.90;;;8.20;99.90;;;;;;5026377;28;20455;-76
2022/02/08 09:16:59;;;;;;;4.80;1.03;;;8.40;99.90;;;;;;5030150;28;20542;-76
2022/02/08 09:19:47;;;;;;;2.60;1.10;;;8.50;99.90;;;;;;5046464;28;20471;-76
2022/02/08 09:22:47;;;;;;;5.20;1.20;;;8.70;99.90;;;;;;5029840;28;20434;-76
2022/02/08 09:25:42;;;;;;;5.75;1.40;;;8.80;99.90;;;;;;5031276;28;20468;-79
2022/02/08 09:28:21;;;;;;;3.30;1.00;;;8.80;99.90;;;;;;5023847;28;20251;-79
2022/02/08 09:30:56;;;;;;;1.60;0.80;;;8.80;99.90;;;;;;5034603;28;20945;-80
2022/02/08 09:33:26;;;;;;;2.63;0.90;;;8.90;99.90;;;;;;5029593;28;20818;-78
2022/02/08 09:35:56;;;;;;;4.83;1.77;;;8.90;99.90;;;;;;5031979;28;20466;-79
2022/02/08 09:38:29;;;;;;;4.53;0.90;;;8.90;99.90;;;;;;5023437;28;20792;-79
2022/02/08 09:41:00;;;;;;;3.07;0.90;;;8.90;99.90;;;;;;5022766;28;20505;-79
2022/02/08 09:43:29;;;;;;;3.33;0.80;;;9.10;99.90;;;;;;5030146;28;20517;-80
2022/02/08 09:46:01;;;;;;;2.40;0.90;;;9.20;99.90;;;;;;5029234;28;20557;-78
2022/02/08 09:48:38;;;;;;;1.50;0.90;;;9.30;99.90;;;;;;5034147;28;20487;-79
2022/02/08 09:51:08;;;;;;;2.03;0.80;;;9.70;99.90;;;;;;5027410;28;20488;-80
2022/02/08 09:53:36;;;;;;;2.20;0.90;;;10.10;99.90;;;;;;5062239;28;20456;-79
2022/02/08 09:56:05;;;;;;;1.43;0.60;;;10.30;99.90;;;;;;5035738;28;20543;-80
2022/02/08 09:58:34;;;;;;;1.63;0.90;;;10.70;99.90;;;;;;5033448;28;21018;-79
2022/02/08 10:01:05;;;;;;;2.60;1.00;;;11.10;99.90;;;;;;5029114;28;20452;-79
2022/02/08 10:03:35;;;;;;;2.00;0.80;;;11.20;99.90;;;;;;5032437;28;20507;-79
2022/02/08 10:06:04;;;;;;;1.20;1.10;;;11.20;99.90;;;;;;5026885;28;20980;-80
2022/02/08 10:08:33;;;;;;;5.57;0.90;;;11.40;99.90;;;;;;5031099;28;20470;-80
2022/02/08 10:11:13;;;;;;;3.53;1.00;;;11.50;99.90;;;;;;5029218;28;20487;-80
2022/02/08 10:13:56;;;;;;;0.70;0.70;;;12.10;99.90;;;;;;5035401;28;20729;-80
2022/02/08 10:20:04;;;;;;;1.80;0.80;;;12.10;99.90;;;;;;5030826;28;20471;-79
2022/02/08 10:22:35;;;;;;;2.47;1.10;;;12.30;99.90;;;;;;5026582;28;20470;-80
2022/02/08 10:25:07;;;;;;;0.90;0.83;;;12.60;99.90;;;;;;5059360;28;20545;-81
2022/02/08 10:27:37;;;;;;;2.00;0.83;;;12.80;99.90;;;;;;5030928;28;20448;-79
2022/02/08 10:38:44;;;;;;;2.93;0.80;;;13.60;99.90;;;;;;5003746;28;20484;-80
2022/02/08 10:41:17;;;;;;;4.57;2.10;;;13.60;99.90;;;;;;5027874;28;20713;-80
2022/02/08 10:43:57;;;;;;;3.00;1.07;;;13.60;99.90;;;;;;5030352;28;20501;-80
2022/02/08 10:46:26;;;;;;;5.63;1.87;;;13.70;99.90;;;;;;5032119;28;20460;-80
2022/02/08 10:49:02;;;;;;;4.50;1.10;;;14.00;99.90;;;;;;5034264;28;20473;-81
2022/02/08 10:51:36;;;;;;;1.10;0.80;;;14.40;99.90;;;;;;5029723;28;20470;-81
2022/02/08 10:54:11;;;;;;;2.20;1.17;;;14.60;99.90;;;;;;5022972;28;20989;-80
2022/02/08 10:56:45;;;;;;;2.80;0.70;;;14.70;99.90;;;;;;5023230;28;20995;-81
2022/02/08 10:59:19;;;;;;;1.67;0.87;;;14.80;99.90;;;;;;5028621;28;20494;-80
2022/02/08 11:01:56;;;;;;;1.50;0.77;;;14.90;99.90;;;;;;5032259;28;20455;-80
2022/02/08 11:04:43;;;;;;;3.40;0.80;;;15.00;99.90;;;;;;5031795;28;20487;-80
2022/02/08 11:07:19;;;;;;;2.10;0.70;;;14.90;99.90;;;;;;5026514;28;20500;-81
2022/02/08 11:10:08;;;;;;;4.67;0.80;;;14.70;99.90;;;;;;5037542;28;20483;-79
2022/02/08 11:12:47;;;;;;;2.50;1.00;;;14.60;99.90;;;;;;5030343;28;20452;-80
2022/02/08 11:15:29;;;;;;;2.73;1.00;;;14.70;99.90;;;;;;5026313;28;20462;-80
2022/02/08 11:21:03;;;;;;;2.30;1.03;;;14.60;99.90;;;;;;5031962;28;20458;-80
2022/02/08 11:23:36;;;;;;;1.93;1.00;;;14.60;99.90;;;;;;5031868;28;20567;-80
2022/02/08 11:26:04;;;;;;;5.63;1.10;;;14.50;99.90;;;;;;5026445;28;20516;-80
2022/02/08 11:28:43;;;;;;;2.57;0.90;;;14.20;99.90;;;;;;5028344;28;20544;-80
2022/02/08 11:31:21;;;;;;;0.80;0.60;;;14.40;99.90;;;;;;5029231;28;20547;-79
2022/02/08 11:38:59;;;;;;;1.83;0.97;;;14.70;99.90;;;;;;5026681;28;20451;-79
2022/02/08 11:45:46;;;;;;;2.27;0.60;;;14.50;99.90;;;;;;5020957;28;20454;-81
2022/02/08 11:48:42;;;;;;;2.10;0.70;;;14.20;99.90;;;;;;5014660;28;20494;-79
2022/02/08 11:51:39;;;;;;;1.93;0.70;;;14.00;99.90;;;;;;5031648;28;20580;-80
2022/02/08 11:54:44;;;;;;;2.60;0.90;;;13.70;99.90;;;;;;5028887;28;20458;-79
2022/02/08 11:58:04;;;;;;;1.27;0.80;;;13.50;99.90;;;;;;5024173;28;20443;-80
2022/02/08 12:00:37;;;;;;;1.73;0.70;;;13.40;99.90;;;;;;5027720;28;20794;-79
2022/02/08 12:06:24;;;;;;;0.87;0.73;;;13.20;99.90;;;;;;5013093;28;20505;-79
2022/02/08 12:08:57;;;;;;;1.97;1.10;;;13.00;99.90;;;;;;5038057;28;20481;-79
2022/02/08 12:11:51;;;;;;;3.95;1.02;;;13.00;99.90;;;;;;5015770;28;20440;-76
2022/02/08 12:31:42;;;;;;;1.07;0.60;;;13.10;99.90;;;;;;5004683;28;20483;-75
2022/02/08 12:34:28;;;;;;;0.60;0.60;;;13.10;99.90;;;;;;5027001;28;20542;-76
2022/02/08 12:54:06;;;;;;;2.10;0.50;;;13.30;99.90;;;;;;5025874;28;21031;-80
2022/02/08 12:56:44;;;;;;;0.97;0.50;;;13.30;99.90;;;;;;5022229;28;20725;-80
2022/02/08 12:59:36;;;;;;;2.20;0.70;;;13.30;99.90;;;;;;5023120;28;20478;-79
2022/02/08 13:05:56;;;;;;;3.67;0.90;;;13.30;99.90;;;;;;5023674;28;20459;-80
2022/02/08 14:01:47;;;;;;;1.70;0.80;;;12.50;99.90;;;;;;5026448;28;20815;-80
2022/02/08 14:07:07;;;;;;;1.33;0.60;;;12.30;99.90;;;;;;5030606;28;20461;-81
2022/02/08 14:10:17;;;;;;;4.00;0.80;;;12.40;99.90;;;;;;5030013;28;20575;-80
2022/02/08 14:18:41;;;;;;;0.97;0.60;;;12.50;99.90;;;;;;5029044;28;20456;-80
2022/02/08 14:21:14;;;;;;;2.53;0.70;;;12.40;99.90;;;;;;5025380;28;20461;-80
2022/02/08 14:32:22;;;;;;;1.43;0.63;;;12.40;99.90;;;;;;5030044;28;20741;-80
2022/02/08 15:00:22;;;;;;;1.00;0.73;;;12.40;99.90;;;;;;5025918;28;20482;-81
2022/02/08 15:05:53;;;;;;;6.63;1.10;;;12.30;99.90;;;;;;5021098;28;20568;-81
2022/02/08 15:08:27;;;;;;;0.50;0.50;;;12.30;99.90;;;;;;5028350;28;20548;-81
2022/02/08 15:10:56;;;;;;;4.07;0.70;;;12.20;99.90;;;;;;5027231;28;20806;-80
2022/02/08 15:13:26;;;;;;;1.10;1.00;;;12.20;99.90;;;;;;5029061;28;20477;-80
2022/02/08 15:18:55;;;;;;;0.77;0.70;;;12.30;99.90;;;;;;5025313;28;20843;-78
2022/02/08 15:21:30;;;;;;;1.70;0.70;;;12.30;99.90;;;;;;5028326;28;20446;-80
2022/02/08 15:24:00;;;;;;;3.27;0.90;;;12.20;99.90;;;;;;5030655;28;20490;-81
2022/02/08 15:26:29;;;;;;;0.93;0.77;;;12.20;99.90;;;;;;5023532;28;20557;-80
2022/02/08 15:29:02;;;;;;;2.63;1.27;;;12.20;99.90;;;;;;5023566;28;20915;-80
2022/02/08 15:31:31;;;;;;;3.00;1.00;;;12.20;99.90;;;;;;5037488;28;20450;-80
2022/02/08 15:33:59;;;;;;;2.47;0.77;;;12.20;99.90;;;;;;5022917;28;20456;-82
2022/02/08 15:36:31;;;;;;;3.60;0.90;;;12.20;99.90;;;;;;5026369;28;20449;-79
2022/02/08 15:39:07;;;;;;;2.30;0.90;;;12.20;99.90;;;;;;5024229;28;20985;-79
2022/02/08 15:41:38;;;;;;;3.77;0.80;;;12.20;99.90;;;;;;5024087;28;20452;-80
2022/02/08 15:44:08;;;;;;;1.10;0.60;;;12.30;99.90;;;;;;5035421;28;20510;-81
2022/02/08 15:46:37;;;;;;;2.50;0.70;;;12.30;99.90;;;;;;5023816;28;20444;-82
2022/02/08 15:49:05;;;;;;;4.20;0.70;;;12.20;99.90;;;;;;5029171;28;20827;-82
2022/02/08 15:51:40;;;;;;;2.00;0.80;;;12.20;99.90;;;;;;5044135;28;20541;-81
2022/02/08 15:54:19;;;;;;;1.40;0.90;;;12.20;99.90;;;;;;5026001;28;21103;-80
2022/02/08 16:05:28;;;;;;;2.03;1.10;;;12.20;99.90;;;;;;5022522;28;20453;-81
2022/02/08 16:08:25;;;;;;;0.77;0.77;;;12.20;99.90;;;;;;5026007;28;20579;-82
2022/02/08 16:11:04;;;;;;;0.93;0.90;;;12.20;99.90;;;;;;5027904;28;20559;-82
2022/02/08 16:13:43;;;;;;;0.73;0.73;;;12.20;99.90;;;;;;5039908;28;20508;-82
2022/02/08 16:16:42;;;;;;;0.87;0.63;;;12.20;99.90;;;;;;5026696;28;20798;-83
2022/02/08 16:19:18;;;;;;;1.20;0.70;;;12.20;99.90;;;;;;5056616;28;20484;-80
2022/02/08 16:24:49;;;;;;;2.80;0.90;;;12.10;99.90;;;;;;5010103;28;20518;-82
2022/02/08 16:27:29;;;;;;;3.70;0.80;;;12.10;99.90;;;;;;5024806;28;20885;-81
2022/02/08 16:47:14;;;;;;;1.80;0.90;;;12.00;99.90;;;;;;5054306;28;20604;-81
2022/02/08 16:49:46;;;;;;;1.07;1.07;;;12.00;99.90;;;;;;5022647;28;20505;-82
2022/02/08 16:52:45;;;;;;;3.67;1.03;;;12.00;99.90;;;;;;5027124;28;20577;-79
2022/02/08 16:55:32;;;;;;;2.87;0.70;;;12.00;99.90;;;;;;5026512;28;20458;-80
2022/02/08 16:58:21;;;;;;;3.33;0.80;;;12.00;99.90;;;;;;5023322;28;21046;-80
2022/02/08 17:00:51;;;;;;;3.57;1.10;;;12.00;99.90;;;;;;5022737;28;20799;-79
2022/02/08 17:03:42;;;;;;;3.47;0.87;;;12.00;99.90;;;;;;5020909;28;20465;-80
2022/02/08 17:06:11;;;;;;;1.23;0.80;;;12.00;99.90;;;;;;5021437;28;20623;-81
2022/02/08 17:08:39;;;;;;;1.53;0.80;;;11.90;99.90;;;;;;5050360;28;20502;-81
2022/02/08 17:11:08;;;;;;;1.97;1.10;;;11.90;99.90;;;;;;5018549;28;20556;-81
2022/02/08 17:16:47;;;;;;;1.80;1.07;;;12.00;99.90;;;;;;4999374;28;20463;-80
2022/02/08 17:47:33;;;;;;;4.50;0.90;;;11.90;99.90;;;;;;5035507;28;20453;-81
2022/02/08 17:50:02;;;;;;;0.80;0.70;;;12.00;99.90;;;;;;5029668;28;21010;-81
2022/02/08 17:52:31;;;;;;;3.33;1.07;;;11.90;99.90;;;;;;5022751;28;20511;-80
2022/02/08 17:54:59;;;;;;;0.93;0.73;;;11.90;99.90;;;;;;5061723;28;20484;-80
2022/02/08 17:57:27;;;;;;;2.40;0.87;;;11.90;99.90;;;;;;5030024;28;20576;-81
2022/02/08 17:59:57;;;;;;;4.23;0.80;;;11.90;99.90;;;;;;5030137;28;20476;-81
2022/02/08 18:02:27;;;;;;;1.30;0.90;;;11.90;99.90;;;;;;5032362;28;20449;-80
2022/02/08 18:05:00;;;;;;;1.53;1.03;;;11.90;99.90;;;;;;5038497;28;20547;-82
2022/02/08 18:07:28;;;;;;;1.53;0.70;;;11.80;99.90;;;;;;5061086;28;20512;-81
2022/02/08 18:09:56;;;;;;;1.50;0.83;;;11.90;99.90;;;;;;5029046;28;20543;-80
2022/02/08 18:12:27;;;;;;;1.60;0.90;;;11.80;99.90;;;;;;5049355;28;20457;-80
2022/02/08 18:14:59;;;;;;;3.15;1.00;;;11.80;99.90;;;;;;5021870;28;20535;-81
2022/02/08 18:17:31;;;;;;;2.53;0.90;;;11.90;99.90;;;;;;5031375;28;20603;-81
2022/02/08 18:20:09;;;;;;;4.10;1.17;;;11.80;99.90;;;;;;5018803;28;21237;-81
2022/02/08 18:22:51;;;;;;;3.33;0.90;;;11.80;99.90;;;;;;5055937;28;20459;-81
2022/02/08 18:28:28;;;;;;;2.63;1.00;;;11.80;99.90;;;;;;5028366;28;20469;-83
2022/02/08 19:07:19;;;;;;;3.10;1.40;;;11.60;99.90;;;;;;5013967;28;20588;-79